Flight Track Log - Related Links

Times and Time Zones

All times are in EDT time to prevent confusion due to time zone crossing. See the SWA104 flight status page for this flight to view local times or setup timezone preferences in your user account.

Time Position Orientation Groundspeed Altitude Reporting Facility
EDT Latitude Longitude Course Direction KTS MPH feet Rate Location/Type
Sat 05:23:31 PM 43.0033 -87.9250 275° West 184 212 4,100  Level Chicago Center
Sat 05:24:33 PM 43.0111 -88.0408 275° West 257 296 7,200 3,339 Climbing Chicago Center
Sat 05:25:35 PM 43.0072 -88.1436 267° West 267 307 11,000 3,435 Climbing Chicago Center
Sat 05:26:37 PM 43.0000 -88.2681 266° West 319 367 14,300 3,268 Climbing Chicago Center
Sat 05:27:38 PM 42.9897 -88.3967 264° West 337 388 17,700 3,122 Climbing Chicago Center
Sat 05:28:40 PM 42.9789 -88.5342 264° West 356 410 20,700 2,855 Climbing Chicago Center
Sat 05:29:42 PM 42.9689 -88.6769 265° West 372 428 23,600 2,661 Climbing Chicago Center
Sat 05:30:44 PM 42.9550 -88.8253 263° West 387 445 26,200 2,129 Climbing Chicago Center
Sat 05:31:46 PM 42.9375 -88.9775 261° West 401 461 28,000 1,902 Climbing Chicago Center
Sat 05:32:47 PM 42.9103 -89.1633 259° West 414 476 30,100 1,951 Climbing Chicago Center
Sat 05:33:49 PM 42.8892 -89.3194 260° West 417 480 32,000 1,887 Climbing Chicago Center
Sat 05:34:51 PM 42.8733 -89.4753 262° West 417 480 34,000 1,887 Climbing Chicago Center
Sat 05:35:53 PM 42.8564 -89.6267 261° West 410 472 35,900 968 Climbing Chicago Center
Sat 05:36:55 PM 42.8386 -89.7783 261° West 409 471 36,000 49 Climbing Chicago Center
Sat 05:37:56 PM 42.8211 -89.9239 261° West 403 464 36,000 439 Level Chicago Center
Sat 05:38:58 PM 42.8025 -90.0722 260° West 403 464 36,900 1,113 Climbing Chicago Center
Sat 05:40:00 PM 42.7817 -90.2536 261° West 410 472 38,300 1,306 Climbing Chicago Center
Sat 05:41:02 PM 42.7633 -90.3989 260° West 399 459 39,600 829 Climbing Chicago Center
Sat 05:42:03 PM 42.7450 -90.5453 260° West 397 457 40,000 138 Climbing Chicago Center
Sat 05:43:56 PM 42.7075 -90.8386 260° West 397 457 40,000  Level Minneapolis Center
Sat 05:44:58 PM 42.6900 -90.9811 261° West 389 448 40,000  Level Minneapolis Center
Sat 05:45:59 PM 42.6714 -91.1225 260° West 384 442 40,000  Level Minneapolis Center
Sat 05:47:00 PM 42.6533 -91.2625 260° West 380 437 40,000  Level Minneapolis Center
Sat 05:48:02 PM 42.6342 -91.4036 260° West 380 437 40,000  Level Minneapolis Center
Sat 05:49:03 PM 42.6147 -91.5469 260° West 382 440 40,000  Level Minneapolis Center
Sat 05:50:04 PM 42.5961 -91.6892 260° West 380 437 40,000  Level Minneapolis Center
Sat 05:51:06 PM 42.5775 -91.8292 260° West 377 434 40,000  Level Minneapolis Center
Sat 05:52:07 PM 42.5586 -91.9694 260° West 377 434 40,000  Level Minneapolis Center
Sat 05:53:08 PM 42.5383 -92.1114 259° West 382 440 40,000  Level Minneapolis Center
Sat 05:54:09 PM 42.5183 -92.2539 259° West 386 444 40,000  Level Minneapolis Center
Sat 05:55:11 PM 42.4944 -92.4231 259° West 385 443 40,000  Level Minneapolis Center
Sat 05:56:12 PM 42.4744 -92.5642 259° West 384 442 40,000  Level Minneapolis Center
Sat 05:57:13 PM 42.4542 -92.7047 259° West 384 442 40,000  Level Minneapolis Center
Sat 05:58:15 PM 42.4342 -92.8428 259° West 379 436 40,000  Level Minneapolis Center
Sat 05:59:16 PM 42.4139 -92.9797 259° West 375 432 40,000  Level Minneapolis Center
Sat 06:00:17 PM 42.3953 -93.1156 260° West 372 428 40,000  Level Minneapolis Center
Sat 06:01:18 PM 42.3758 -93.2500 259° West 369 425 40,000  Level Minneapolis Center
Sat 06:02:20 PM 42.3517 -93.4103 259° West 366 421 40,000  Level Minneapolis Center
Sat 06:03:21 PM 42.3306 -93.5408 258° West 362 417 40,000  Level Minneapolis Center
Sat 06:04:22 PM 42.3103 -93.6733 258° West 363 418 40,000  Level Minneapolis Center
Sat 06:05:24 PM 42.2897 -93.8053 258° West 362 417 40,000  Level Minneapolis Center
Sat 06:06:25 PM 42.2675 -93.9383 257° West 366 421 40,000  Level Minneapolis Center
Sat 06:07:27 PM 42.2469 -94.0708 258° West 366 421 40,000  Level Minneapolis Center
Sat 06:08:28 PM 42.2258 -94.2028 258° West 365 420 40,000  Level Minneapolis Center
Sat 06:09:29 PM 42.2022 -94.3578 258° West 366 421 40,000  Level Minneapolis Center
Sat 06:10:31 PM 42.1806 -94.4944 258° West 371 427 40,000  Level Minneapolis Center
Sat 06:11:32 PM 42.1581 -94.6319 258° West 375 432 40,000  Level Minneapolis Center
Sat 06:12:34 PM 42.1367 -94.7708 258° West 378 435 40,000  Level Minneapolis Center
Sat 06:13:35 PM 42.1136 -94.9083 257° West 378 435 40,000  Level Minneapolis Center
Sat 06:14:36 PM 42.0900 -95.0442 257° West 374 430 40,000  Level Minneapolis Center
Sat 06:15:38 PM 42.0628 -95.2111 258° West 380 437 40,000  Level Minneapolis Center
Sat 06:16:39 PM 42.0386 -95.3486 257° West 379 436 40,000  Level Minneapolis Center
Sat 06:17:41 PM 42.0164 -95.4856 258° West 378 435 40,000  Level Minneapolis Center
Sat 06:18:42 PM 41.9922 -95.6217 257° West 377 434 40,000  Level Minneapolis Center
Sat 06:19:44 PM 41.9686 -95.7594 257° West 378 435 40,000  Level Minneapolis Center
Sat 06:20:45 PM 41.9439 -95.8964 256° West 380 437 40,000  Level Minneapolis Center
Sat 06:21:46 PM 41.9203 -96.0322 257° West 377 434 40,000  Level Minneapolis Center
Sat 06:22:48 PM 41.8961 -96.1711 257° West 382 440 40,000  Level Minneapolis Center
Sat 06:23:49 PM 41.8669 -96.3367 257° West 383 441 40,000  Level Minneapolis Center
Sat 06:24:51 PM 41.8419 -96.4731 256° West 381 438 40,000  Level Minneapolis Center
Sat 06:25:52 PM 41.8167 -96.6081 256° West 377 434 40,000  Level Minneapolis Center
Sat 06:26:54 PM 41.7919 -96.7442 256° West 377 434 40,000  Level Minneapolis Center
Sat 06:27:55 PM 41.7675 -96.8806 257° West 378 435 40,000  Level Minneapolis Center
Sat 06:28:57 PM 41.7422 -97.0147 256° West 374 430 40,000  Level Minneapolis Center
Sat 06:29:58 PM 41.7164 -97.1511 256° West 377 434 40,000  Level Minneapolis Center
Sat 06:30:59 PM 41.6858 -97.3161 256° West 381 438 40,000  Level Minneapolis Center
Sat 06:32:01 PM 41.6592 -97.4531 255° West 382 440 40,000  Level Minneapolis Center
Sat 06:33:02 PM 41.6328 -97.5922 256° West 384 442 40,000  Level Minneapolis Center
Sat 06:34:04 PM 41.6053 -97.7322 255° West 386 444 40,000  Level Minneapolis Center
Sat 06:35:05 PM 41.5778 -97.8733 255° West 390 449 40,000  Level Minneapolis Center
Sat 06:36:07 PM 41.5508 -98.0139 256° West 391 450 40,000  Level Minneapolis Center
Sat 06:37:09 PM 41.5244 -98.1517 256° West 390 449 40,000  Level Minneapolis Center
Sat 06:38:10 PM 41.4961 -98.2908 255° West 389 448 40,000  Level Minneapolis Center
Sat 06:39:12 PM 41.4636 -98.4567 255° West 388 447 40,000  Level Minneapolis Center
Sat 06:40:13 PM 41.4356 -98.5975 255° West 389 448 40,000  Level Minneapolis Center
Sat 06:41:15 PM 41.4078 -98.7358 255° West 387 445 40,000  Level Minneapolis Center
Sat 06:42:17 PM 41.3786 -98.8717 254° West 385 443 40,000  Level Minneapolis Center
Sat 06:43:18 PM 41.3503 -99.0094 255° West 385 443 40,000  Level Minneapolis Center
Sat 06:44:20 PM 41.3197 -99.1450 253° West 385 443 40,000  Level Minneapolis Center
Sat 06:45:04 PM 41.3031 -99.2472 258° West 383 441 40,000  Level Denver Center
Sat 06:46:06 PM 41.2742 -99.3819 254° West 382 440 40,000  Level Denver Center
Sat 06:47:07 PM 41.2417 -99.5347 254° West 383 441 40,000  Level Denver Center
Sat 06:48:09 PM 41.2139 -99.6653 254° West 385 443 40,000  Level Denver Center
Sat 06:49:10 PM 41.1819 -99.8172 254° West 384 442 40,000  Level Denver Center
Sat 06:50:12 PM 41.1544 -99.9483 254° West 385 443 40,000  Level Denver Center
Sat 06:51:14 PM 41.1219 -100.1006 254° West 385 443 40,000  Level Denver Center
Sat 06:52:15 PM 41.0928 -100.2300 253° West 384 442 40,000  Level Denver Center
Sat 06:53:17 PM 41.0603 -100.3819 254° West 385 443 40,000  Level Denver Center
Sat 06:54:19 PM 41.0322 -100.5108 254° West 384 442 40,000  Level Denver Center
Sat 06:55:20 PM 41.0039 -100.6394 254° West 383 441 40,000  Level Denver Center
Sat 06:56:22 PM 40.9700 -100.7889 253° West 385 443 40,000  Level Denver Center
Sat 06:57:23 PM 40.9367 -100.9350 253° West 377 434 40,000  Level Denver Center
Sat 06:58:25 PM 40.9078 -101.0625 253° West 380 437 40,000  Level Denver Center
Sat 06:59:27 PM 40.8783 -101.1903 253° West 382 440 40,000  Level Denver Center
Sat 07:00:28 PM 40.8444 -101.3408 253° West 383 441 40,000  Level Denver Center
Sat 07:01:30 PM 40.8139 -101.4694 253° West 384 442 40,000  Level Denver Center
Sat 07:02:31 PM 40.7789 -101.6203 253° West 386 444 40,000  Level Denver Center
Sat 07:03:33 PM 40.7494 -101.7497 253° West 387 445 40,000  Level Denver Center
Sat 07:04:34 PM 40.7133 -101.8997 252° West 385 443 40,000  Level Denver Center
Sat 07:05:36 PM 40.6828 -102.0275 253° West 383 441 40,000  Level Denver Center
Sat 07:06:37 PM 40.6536 -102.1547 253° West 381 438 40,000  Level Denver Center
Sat 07:07:39 PM 40.6183 -102.3019 253° West 378 435 40,000  Level Denver Center
Sat 07:08:40 PM 40.5886 -102.4275 253° West 377 434 40,000  Level Denver Center
Sat 07:09:42 PM 40.5525 -102.5758 252° West 381 438 40,000  Level Denver Center
Sat 07:10:43 PM 40.5200 -102.7086 252° West 379 436 40,000  Level Denver Center
Sat 07:11:45 PM 40.4881 -102.8419 253° West 384 442 40,000  Level Denver Center
Sat 07:12:46 PM 40.4561 -102.9731 252° West 379 436 40,000  Level Denver Center
Sat 07:13:47 PM 40.4233 -103.1061 252° West 382 440 40,000  Level Denver Center
Sat 07:14:49 PM 40.3900 -103.2378 252° West 382 440 40,000  Level Denver Center
Sat 07:15:50 PM 40.3578 -103.3692 252° West 380 437 40,000  Level Denver Center
Sat 07:16:52 PM 40.3244 -103.5008 252° West 383 441 40,000  Level Denver Center
Sat 07:17:53 PM 40.2842 -103.6583 252° West 382 440 40,000  Level Denver Center
Sat 07:18:55 PM 40.2508 -103.7944 252° West 399 459 40,000  Level Denver Center
Sat 07:19:56 PM 40.2172 -103.9231 251° West 377 434 40,000  Level Denver Center
Sat 07:20:57 PM 40.1842 -104.0550 252° West 381 438 40,000  Level Denver Center
Sat 07:21:59 PM 40.1511 -104.1825 251° West 374 430 40,000  Level Denver Center
Sat 07:23:00 PM 40.1178 -104.3125 252° West 377 434 40,000  Level Denver Center
Sat 07:24:02 PM 40.0836 -104.4417 251° West 379 436 40,000  Level Denver Center
Sat 07:25:03 PM 40.0506 -104.5711 252° West 380 437 40,000  Level Denver Center
Sat 07:26:04 PM 40.0103 -104.7261 251° West 378 435 40,000  Level Denver Center
Sat 07:27:06 PM 39.9764 -104.8539 251° West 375 432 40,000  Level Denver Center
Sat 07:28:07 PM 39.9411 -104.9839 251° West 371 427 40,000  Level Denver Center
Sat 07:29:09 PM 39.9072 -105.1075 250° West 365 420 40,000  Level Denver Center
Sat 07:30:10 PM 39.8756 -105.2236 250° West 359 413 40,000  Level Denver Center
Sat 07:31:12 PM 39.8422 -105.3489 251° West 368 423 40,000  Level Denver Center
Sat 07:32:13 PM 39.8003 -105.5000 250° West 371 427 40,000  Level Denver Center
Sat 07:33:14 PM 39.7661 -105.6267 251° West 374 430 40,000  Level Denver Center
Sat 07:34:16 PM 39.7308 -105.7542 250° West 377 434 40,000  Level Denver Center
Sat 07:35:17 PM 39.6964 -105.8811 251° West 373 429 40,000  Level Denver Center
Sat 07:36:19 PM 39.6603 -106.0136 251° West 386 444 40,000  Level Denver Center
Sat 07:37:20 PM 39.6231 -106.1433 250° West 384 442 40,000  Level Denver Center
Sat 07:38:22 PM 39.5861 -106.2783 250° West 378 435 40,000  Level Denver Center
Sat 07:39:23 PM 39.5492 -106.4069 250° West 380 437 40,000  Level Denver Center
Sat 07:40:24 PM 39.5103 -106.5444 250° West 380 437 40,000  Level Denver Center
Sat 07:41:26 PM 39.4756 -106.6669 250° West 380 437 40,000  Level Denver Center
Sat 07:42:27 PM 39.4275 -106.8064 246° West 380 437 40,000  Level Denver Center
Sat 07:43:29 PM 39.3861 -106.9253 246° West 380 437 40,000  Level Denver Center
Sat 07:44:30 PM 39.3406 -107.0622 247° West 376 433 40,000  Level Denver Center
Sat 07:45:32 PM 39.2981 -107.1803 245° Southwest 377 434 40,000  Level Denver Center
Sat 07:46:33 PM 39.2558 -107.2986 245° Southwest 378 435 40,000  Level Denver Center
Sat 07:47:35 PM 39.2083 -107.4356 246° West 375 432 40,000  Level Denver Center
Sat 07:48:36 PM 39.1664 -107.5531 245° Southwest 376 433 40,000  Level Denver Center
Sat 07:49:38 PM 39.1178 -107.6883 245° Southwest 373 429 40,000  Level Denver Center
Sat 07:50:39 PM 39.0758 -107.8031 245° Southwest 371 427 40,000  Level Denver Center
Sat 07:51:41 PM 39.0353 -107.9186 246° West 369 425 40,000  Level Denver Center
Sat 07:52:42 PM 38.9864 -108.0539 245° Southwest 372 428 40,000  Level Denver Center
Sat 07:53:44 PM 38.9444 -108.1689 245° Southwest 370 426 40,000  Level Denver Center
Sat 07:54:45 PM 38.9019 -108.2844 245° Southwest 372 428 40,000  Level Denver Center
Sat 07:55:47 PM 38.8544 -108.4169 245° Southwest 366 421 40,000  Level Denver Center
Sat 07:56:48 PM 38.8133 -108.5289 245° Southwest 363 418 40,000  Level Denver Center
Sat 07:57:50 PM 38.7650 -108.6600 245° Southwest 362 417 40,000  Level Denver Center
Sat 07:58:51 PM 38.7239 -108.7714 245° Southwest 361 415 40,000  Level Denver Center
Sat 07:59:52 PM 38.6822 -108.8853 245° Southwest 368 423 40,000  Level Denver Center
Sat 08:00:54 PM 38.6325 -109.0175 244° Southwest 368 423 40,000  Level Denver Center
Sat 08:01:56 PM 38.5908 -109.1314 245° Southwest 368 423 40,000  Level Denver Center
Sat 08:02:57 PM 38.5400 -109.2617 244° Southwest 368 423 40,000  Level Denver Center
Sat 08:03:59 PM 38.4978 -109.3736 244° Southwest 366 421 40,000  Level Denver Center
Sat 08:05:00 PM 38.4556 -109.4856 244° Southwest 366 421 40,000  Level Denver Center
Sat 08:06:02 PM 38.4069 -109.6156 245° Southwest 364 419 40,000  Level Denver Center
Sat 08:07:03 PM 38.3642 -109.7256 244° Southwest 363 418 40,000  Level Denver Center
Sat 08:08:05 PM 38.3147 -109.8561 244° Southwest 366 421 40,000  Level Denver Center
Sat 08:09:06 PM 38.2722 -109.9650 244° Southwest 360 414 40,000 -146 Level Denver Center
Sat 08:10:08 PM 38.2292 -110.0764 244° Southwest 364 419 39,700 -683 Descending Denver Center
Sat 08:11:09 PM 38.1803 -110.2067 245° Southwest 365 420 38,600 -976 Descending Denver Center
Sat 08:12:11 PM 38.1347 -110.3189 243° Southwest 370 426 37,700 -927 Descending Denver Center
Sat 08:13:12 PM 38.0833 -110.4503 244° Southwest 372 428 36,700 -927 Descending Denver Center
Sat 08:14:14 PM 38.0383 -110.5661 244° Southwest 380 437 35,800 -878 Descending Denver Center
Sat 08:15:15 PM 37.9936 -110.6808 244° Southwest 381 438 34,900 -878 Descending Denver Center
Sat 08:16:17 PM 37.9447 -110.8017 243° Southwest 384 442 34,000 -1,024 Descending Denver Center
Sat 08:17:18 PM 37.8861 -110.9514 244° Southwest 393 452 32,800 -976 Descending Salt Lake Center
Sat 08:18:20 PM 37.8358 -111.0761 243° Southwest 398 458 32,000 -353 Descending Denver Center
Sat 08:19:34 PM 37.7767 -111.2247 243° Southwest 395 455 32,000  Level Denver Center
Sat 08:20:35 PM 37.7269 -111.3483 243° Southwest 395 455 32,000  Level Denver Center
Sat 08:21:22 PM 37.6867 -111.4475 243° Southwest 396 456 32,000  Level Salt Lake Center
Sat 08:22:23 PM 37.6372 -111.5711 243° Southwest 396 456 32,000 -217 Level Salt Lake Center
Sat 08:23:40 PM 37.5761 -111.7214 243° Southwest 401 461 31,500 -696 Descending Denver Center
Sat 08:24:41 PM 37.5253 -111.8442 242° Southwest 396 456 30,400 -841 Descending Denver Center
Sat 08:25:27 PM 37.4847 -111.9428 243° Southwest 396 456 30,000 -224 Descending Salt Lake Center
Sat 08:26:28 PM 37.4347 -112.0642 243° Southwest 393 452 30,000  Level Salt Lake Center
Sat 08:27:05 PM 37.4022 -112.1406 242° Southwest 396 456 30,000  Level Los Angeles Center
Sat 08:28:07 PM 37.3344 -112.3036 242° Southwest 428 493 30,000  Level Los Angeles Center
Sat 08:29:09 PM 37.2792 -112.4392 243° Southwest 433 498 30,000  Level Los Angeles Center
Sat 08:30:10 PM 37.2231 -112.5739 242° Southwest 433 498 30,000  Level Los Angeles Center
Sat 08:31:12 PM 37.1656 -112.7094 242° Southwest 435 501 30,000  Level Los Angeles Center
Sat 08:32:14 PM 37.1086 -112.8453 242° Southwest 437 503 30,000 -537 Level Los Angeles Center
Sat 08:33:15 PM 37.0511 -112.9806 242° Southwest 437 503 28,900 -1,024 Descending Los Angeles Center
Sat 08:34:17 PM 36.9956 -113.1133 242° Southwest 433 498 27,900 -968 Descending Los Angeles Center
Sat 08:35:19 PM 36.9386 -113.2444 242° Southwest 429 494 26,900 -976 Descending Los Angeles Center
Sat 08:36:20 PM 36.8836 -113.3747 242° Southwest 425 489 25,900 -976 Descending Los Angeles Center
Sat 08:37:22 PM 36.8278 -113.5025 241° Southwest 420 483 24,900 -919 Descending Los Angeles Center
Sat 08:38:24 PM 36.7631 -113.6539 242° Southwest 413 475 24,000 -439 Descending Los Angeles Center
Sat 08:39:25 PM 36.7092 -113.7781 242° Southwest 409 471 24,000 -49 Level Los Angeles Center
Sat 08:40:27 PM 36.6558 -113.9008 242° Southwest 405 466 23,900 -1,306 Descending Los Angeles Center
Sat 08:41:29 PM 36.6008 -114.0228 241° Southwest 404 465 21,300 -2,634 Descending Los Angeles Center
Sat 08:42:30 PM 36.5503 -114.1408 242° Southwest 388 447 18,500 -2,683 Descending Los Angeles Center
Sat 08:43:32 PM 36.5000 -114.2483 240° Southwest 376 433 15,800 -2,789 Descending Los Angeles Center
Sat 08:44:24 PM 36.4539 -114.3606 243° Southwest 361 415 13,200 -3,049 Descending Los Angeles Center
Sat 08:44:33 PM 36.4408 -114.3781 227° Southwest 361 415 12,700 -1,075 Descending Los Angeles Center
Sat 08:45:31 PM 36.3989 -114.4731 241° Southwest 317 365 12,000 -677 Descending Los Angeles Center
Sat 08:45:35 PM 36.3947 -114.4739 189° South 324 373 12,000 -787 Level Los Angeles Center
Sat 08:46:32 PM 36.3264 -114.5164 207° Southwest 281 323 11,200 -787 Descending Los Angeles Center
Sat 08:46:36 PM 36.3239 -114.5139 141° Southeast 281 323 11,200 -909 Level Los Angeles Center
Sat 08:47:38 PM 36.2506 -114.5522 203° Southwest 282 325 10,200 -1,048 Descending Los Angeles Center
Sat 08:47:39 PM 36.2467 -114.5569 224° Southwest 281 323 10,100 -1,071 Descending Los Angeles Center
Sat 08:48:34 PM 36.1903 -114.6053 215° Southwest 279 321 9,200 -900 Descending Los Angeles Center
Sat 08:48:39 PM 36.1878 -114.6047 170° South 270 311 9,200 -984 Level Los Angeles Center
Sat 08:49:35 PM 36.1325 -114.6672 222° Southwest 262 302 8,200 -968 Descending Los Angeles Center
Sat 08:49:41 PM 36.1314 -114.6647 119° Southeast 268 308 8,200 -179 Level Los Angeles Center
Sat 08:50:42 PM 36.0803 -114.7181 220° Southwest 254 292 8,000 -621 Descending Los Angeles Center
Sat 08:51:37 PM 36.0747 -114.7961 265° West 237 273 7,000 -968 Descending Los Angeles Center
Sat 08:51:44 PM 36.0736 -114.7928 112° Southeast 242 278 7,000 -627 Level Los Angeles Center
Sat 08:52:44 PM 36.0744 -114.8839 271° West 228 262 6,300 -492 Descending Los Angeles Center
Sat 08:52:45 PM 36.0731 -114.8717 98° East 235 270 6,500 -1,180 Climbing Los Angeles Center
Sat 08:53:45 PM 36.0731 -114.9564 270° West 209 241 5,100 -1,161 Descending Los Angeles Center
Sat 08:53:47 PM 36.0733 -114.9453 88° East 225 259 5,300 -1,556 Climbing Los Angeles Center
Sat 08:54:39 PM 36.0736 -115.0175 270° West 198 228 3,700 -1,770 Descending Los Angeles Center
Sat 08:54:48 PM 36.0736 -115.0264 270° West 209 241 3,500 -845 Descending Los Angeles Center
Sat 08:55:50 PM 36.0733 -115.0800 270° West 179 206 2,700 -732 Descending Los Angeles Center
Sat 08:56:51 PM 36.0742 -115.1275 271° West 153 176 2,000 -689 Descending Los Angeles Center
Sat 08:58:00 PM 36.0667 -115.1500 219° Southwest  Level FlightAware Approximate
Sat 09:05:00 PM 36.0801 -115.1523 219° Southwest  Level Estimated

Login

Don't have an account? Register now (free) for customized features, flight alerts, and more!